createdAt,value
2023-04-16T00:02:01.569Z,3.00
2023-04-16T00:04:28.609Z,2.58
2023-04-16T00:06:55.503Z,2.80
2023-04-16T00:09:22.322Z,2.72
2023-04-16T00:11:49.298Z,2.03
2023-04-16T00:14:16.499Z,2.78
2023-04-16T00:16:43.366Z,2.88
2023-04-16T00:19:10.718Z,3.20
2023-04-16T00:21:37.681Z,2.50
2023-04-16T00:24:04.577Z,2.72
2023-04-16T00:26:31.552Z,2.22
2023-04-16T00:28:58.366Z,2.70
2023-04-16T00:31:32.944Z,2.22
2023-04-16T00:33:59.978Z,2.00
2023-04-16T00:36:27.981Z,3.88
2023-04-16T00:38:56.259Z,2.33
2023-04-16T00:41:23.672Z,3.00
2023-04-16T00:43:50.873Z,3.00
2023-04-16T00:46:19.679Z,2.40
2023-04-16T00:48:46.919Z,2.15
2023-04-16T00:51:13.894Z,2.58
2023-04-16T00:53:40.975Z,2.45
2023-04-16T00:56:07.945Z,2.40
2023-04-16T00:58:35.758Z,2.42
2023-04-16T01:01:02.792Z,2.72
2023-04-16T01:03:41.070Z,2.85
2023-04-16T01:06:08.280Z,3.13
2023-04-16T01:08:35.577Z,3.08
2023-04-16T01:11:02.628Z,4.75
2023-04-16T01:13:30.033Z,3.83
2023-04-16T01:15:56.939Z,3.45
2023-04-16T01:18:24.164Z,3.97
2023-04-16T01:20:51.317Z,3.90
2023-04-16T01:23:18.729Z,15.43
2023-04-16T01:25:46.567Z,3.65
2023-04-16T01:28:13.555Z,4.07
2023-04-16T01:30:40.489Z,4.25
2023-04-16T01:33:08.515Z,5.13
2023-04-16T01:35:35.417Z,6.22
2023-04-16T01:38:03.369Z,4.70
2023-04-16T01:40:30.594Z,4.28
2023-04-16T01:42:57.486Z,5.18
2023-04-16T01:45:24.365Z,4.78
2023-04-16T01:47:51.642Z,4.95
2023-04-16T01:50:19.677Z,4.53
2023-04-16T01:52:46.695Z,5.80
2023-04-16T01:55:13.678Z,5.20
2023-04-16T01:57:40.715Z,4.75
2023-04-16T02:00:08.780Z,5.82
2023-04-16T02:02:36.421Z,5.40
2023-04-16T02:05:03.515Z,17.88
2023-04-16T02:07:31.750Z,5.00
2023-04-16T02:09:59.707Z,5.03
2023-04-16T02:12:27.063Z,4.18
2023-04-16T02:14:53.837Z,5.30
2023-04-16T02:17:20.973Z,5.60
2023-04-16T02:19:48.322Z,5.15
2023-04-16T02:22:15.642Z,5.10
2023-04-16T02:24:45.566Z,5.25
2023-04-16T02:27:12.367Z,5.63
2023-04-16T02:29:39.442Z,5.57
2023-04-16T02:32:06.553Z,5.95
2023-04-16T02:34:34.637Z,5.85
2023-04-16T02:37:01.442Z,5.82
2023-04-16T02:39:28.330Z,6.65
2023-04-16T02:41:55.199Z,7.22
2023-04-16T02:44:21.996Z,6.43
2023-04-16T02:46:49.194Z,5.65
2023-04-16T02:49:15.956Z,6.57
2023-04-16T02:51:42.719Z,6.35
2023-04-16T02:54:09.524Z,6.38
2023-04-16T02:56:37.748Z,7.05
2023-04-16T02:59:05.127Z,6.32
2023-04-16T03:01:32.475Z,6.60
2023-04-16T03:03:59.347Z,6.57
2023-04-16T03:06:27.165Z,6.15
2023-04-16T03:08:54.047Z,7.55
2023-04-16T03:11:21.298Z,8.00
2023-04-16T03:13:48.892Z,7.75
2023-04-16T03:16:16.313Z,8.90
2023-04-16T03:18:43.290Z,7.32
2023-04-16T03:21:10.148Z,6.72
2023-04-16T03:23:37.184Z,7.82
2023-04-16T03:26:04.101Z,7.00
2023-04-16T03:28:30.961Z,8.00
2023-04-16T03:30:57.881Z,7.80
2023-04-16T03:33:24.748Z,7.18
2023-04-16T03:35:58.324Z,8.07
2023-04-16T03:38:28.419Z,7.93
2023-04-16T03:40:56.278Z,8.27
2023-04-16T03:43:23.124Z,7.35
2023-04-16T03:45:50.427Z,8.00
2023-04-16T03:48:18.012Z,9.00
2023-04-16T03:50:48.140Z,8.57
2023-04-16T03:53:15.985Z,9.32
2023-04-16T03:55:43.217Z,9.55
2023-04-16T03:58:10.267Z,9.93
2023-04-16T04:00:37.244Z,10.85
2023-04-16T04:03:04.454Z,9.88
2023-04-16T04:05:31.370Z,10.18
2023-04-16T04:07:58.258Z,10.07
2023-04-16T04:10:25.485Z,10.30
2023-04-16T04:12:52.208Z,8.77
2023-04-16T04:15:19.201Z,10.38
2023-04-16T04:17:46.213Z,9.38
2023-04-16T04:20:13.201Z,10.43
2023-04-16T04:22:40.089Z,10.60
2023-04-16T04:25:08.654Z,9.98
2023-04-16T04:27:35.555Z,9.38
2023-04-16T04:30:04.966Z,9.90
2023-04-16T04:32:32.405Z,10.02
2023-04-16T04:35:03.828Z,9.80
2023-04-16T04:37:30.683Z,10.52
2023-04-16T04:39:57.566Z,9.43
2023-04-16T04:42:24.835Z,10.43
2023-04-16T04:44:51.624Z,10.07
2023-04-16T04:47:18.401Z,10.73
2023-04-16T04:49:45.424Z,10.75
2023-04-16T04:52:12.269Z,11.27
2023-04-16T04:54:41.683Z,10.23
2023-04-16T04:57:08.938Z,11.50
2023-04-16T04:59:35.864Z,12.02
2023-04-16T05:02:03.575Z,11.02
2023-04-16T05:04:31.367Z,11.23
2023-04-16T05:06:58.587Z,10.73
2023-04-16T05:09:25.435Z,11.52
2023-04-16T05:11:52.564Z,11.68
2023-04-16T05:14:20.911Z,12.35
2023-04-16T05:16:48.009Z,12.20
2023-04-16T05:19:16.940Z,11.23
2023-04-16T05:21:43.744Z,14.13
2023-04-16T05:24:11.622Z,12.02
2023-04-16T05:26:39.776Z,12.55
2023-04-16T05:29:06.639Z,12.45
2023-04-16T05:31:33.463Z,12.20
2023-04-16T05:34:01.710Z,14.30
2023-04-16T05:36:28.662Z,13.38
2023-04-16T05:38:55.646Z,13.18
2023-04-16T05:41:22.771Z,13.27
2023-04-16T05:43:49.514Z,13.48
2023-04-16T05:46:16.501Z,13.82
2023-04-16T05:48:43.444Z,14.05
2023-04-16T05:51:11.571Z,13.93
2023-04-16T05:53:38.394Z,13.70
2023-04-16T05:56:05.455Z,14.02
2023-04-16T05:58:32.913Z,14.38
2023-04-16T06:01:01.279Z,13.05
2023-04-16T06:03:28.306Z,13.45
2023-04-16T06:05:55.516Z,12.45
2023-04-16T06:08:22.414Z,13.60
2023-04-16T06:10:49.442Z,14.50
2023-04-16T06:13:16.358Z,13.68
2023-04-16T06:15:43.191Z,14.32
2023-04-16T06:18:10.224Z,14.68
2023-04-16T06:20:37.107Z,14.02
2023-04-16T06:23:04.098Z,13.10
2023-04-16T06:25:30.889Z,14.05
2023-04-16T06:27:57.630Z,14.18
2023-04-16T06:30:24.423Z,13.45
2023-04-16T06:32:51.486Z,14.65
2023-04-16T06:35:20.379Z,14.60
2023-04-16T06:37:47.412Z,13.90
2023-04-16T06:40:14.448Z,14.02
2023-04-16T06:42:43.589Z,13.30
2023-04-16T06:45:12.526Z,14.20
2023-04-16T06:47:39.357Z,13.32
2023-04-16T06:50:06.982Z,12.98
2023-04-16T06:52:33.838Z,13.55
2023-04-16T06:55:02.594Z,12.40
2023-04-16T06:57:29.421Z,13.43
2023-04-16T06:59:56.317Z,13.35
2023-04-16T07:02:23.949Z,13.75
2023-04-16T07:04:52.549Z,13.70
2023-04-16T07:07:19.483Z,12.90
2023-04-16T07:09:46.433Z,13.82
2023-04-16T07:12:13.829Z,14.60
2023-04-16T07:14:42.257Z,14.73
2023-04-16T07:17:09.229Z,14.90
2023-04-16T07:19:37.094Z,15.43
2023-04-16T07:22:04.365Z,15.65
2023-04-16T07:24:31.224Z,14.07
2023-04-16T07:26:58.219Z,15.90
2023-04-16T07:29:25.135Z,15.02
2023-04-16T07:31:53.002Z,15.32
2023-04-16T07:34:19.870Z,15.55
2023-04-16T07:36:46.690Z,15.70
2023-04-16T07:39:13.563Z,14.57
2023-04-16T07:41:41.309Z,13.98
2023-04-16T07:44:08.303Z,15.27
2023-04-16T07:46:45.733Z,12.80
2023-04-16T07:49:14.119Z,11.15
2023-04-16T07:51:41.138Z,10.65
2023-04-16T07:54:09.377Z,9.90
2023-04-16T07:56:36.402Z,10.30
2023-04-16T07:59:18.462Z,10.13
2023-04-16T08:01:48.584Z,9.18
2023-04-16T08:04:17.814Z,8.82
2023-04-16T08:06:44.876Z,9.90
2023-04-16T08:09:12.428Z,8.55
2023-04-16T08:11:40.007Z,8.85
2023-04-16T08:14:06.789Z,9.07
2023-04-16T08:16:33.753Z,7.68
2023-04-16T08:19:01.202Z,7.70
2023-04-16T08:21:28.956Z,7.05
2023-04-16T08:23:56.001Z,7.28
2023-04-16T08:26:22.838Z,7.35
2023-04-16T08:28:49.827Z,7.07
2023-04-16T08:31:16.837Z,7.13
2023-04-16T08:33:43.767Z,7.15
2023-04-16T08:36:10.646Z,6.95
2023-04-16T08:38:37.530Z,6.82
2023-04-16T08:41:08.435Z,6.72
2023-04-16T08:43:39.265Z,6.95
2023-04-16T08:46:06.700Z,6.72
2023-04-16T08:48:36.478Z,7.00
2023-04-16T08:51:03.606Z,6.75
2023-04-16T08:53:39.275Z,5.38
2023-04-16T08:56:09.764Z,6.07
2023-04-16T08:58:38.322Z,6.60
2023-04-16T09:01:06.200Z,5.50
2023-04-16T09:03:36.195Z,6.88
2023-04-16T09:06:05.576Z,6.72
2023-04-16T09:08:32.546Z,6.47
2023-04-16T09:11:00.167Z,6.18
2023-04-16T09:13:28.386Z,5.95
2023-04-16T09:15:57.272Z,6.07
2023-04-16T09:18:24.810Z,6.18
2023-04-16T09:20:53.384Z,5.65
2023-04-16T09:23:20.180Z,4.97
2023-04-16T09:25:46.961Z,5.03
2023-04-16T09:28:33.683Z,4.57
2023-04-16T09:31:17.610Z,5.00
2023-04-16T09:34:00.897Z,5.22
2023-04-16T09:36:28.211Z,4.68
2023-04-16T09:39:07.922Z,7.30
2023-04-16T09:41:39.577Z,6.05
2023-04-16T09:44:06.561Z,5.45
2023-04-16T09:46:43.267Z,5.72
2023-04-16T09:49:18.744Z,5.75
2023-04-16T09:51:51.106Z,6.20
2023-04-16T09:54:19.681Z,5.40
2023-04-16T09:56:47.157Z,7.00
2023-04-16T09:59:31.152Z,6.53
2023-04-16T10:02:14.674Z,5.78
2023-04-16T10:04:53.474Z,6.45
2023-04-16T10:07:21.194Z,5.60
2023-04-16T10:09:48.913Z,6.30
2023-04-16T10:12:16.643Z,7.10
2023-04-16T10:14:43.799Z,6.63
2023-04-16T10:17:11.088Z,6.93
2023-04-16T10:19:38.631Z,7.35
2023-04-16T10:22:05.868Z,7.53
2023-04-16T10:24:34.118Z,8.20
2023-04-16T10:27:01.743Z,8.93
2023-04-16T10:29:33.171Z,9.00
2023-04-16T10:34:28.964Z,8.63
2023-04-16T10:36:56.449Z,8.60
2023-04-16T10:39:29.239Z,9.15
2023-04-16T10:42:13.152Z,8.65
2023-04-16T10:44:44.247Z,9.32
2023-04-16T10:47:13.884Z,10.25
2023-04-16T10:49:44.283Z,9.02
2023-04-16T10:52:12.846Z,10.75
2023-04-16T10:54:43.083Z,12.50
2023-04-16T10:57:16.463Z,12.05
2023-04-16T10:59:44.066Z,12.45
2023-04-16T11:02:16.506Z,12.90
2023-04-16T11:04:45.724Z,13.60
2023-04-16T11:07:15.667Z,12.93
2023-04-16T11:09:47.046Z,13.00
2023-04-16T11:12:16.419Z,13.32
2023-04-16T11:14:43.388Z,12.75
2023-04-16T11:17:10.352Z,13.07
2023-04-16T11:19:38.190Z,12.60
2023-04-16T11:22:05.806Z,12.90
2023-04-16T11:24:33.295Z,11.98
2023-04-16T11:27:00.415Z,12.73
2023-04-16T11:29:27.471Z,12.82
2023-04-16T11:31:55.187Z,10.88
2023-04-16T11:34:22.344Z,10.07
2023-04-16T11:36:51.387Z,9.65
2023-04-16T11:39:18.952Z,9.90
2023-04-16T11:41:50.142Z,10.75
2023-04-16T11:44:27.950Z,10.15
2023-04-16T11:46:54.854Z,8.85
2023-04-16T11:49:28.981Z,9.18
2023-04-16T11:51:56.249Z,8.82
2023-04-16T11:54:24.703Z,8.40
2023-04-16T11:56:53.792Z,8.50
2023-04-16T11:59:23.135Z,8.20
2023-04-16T12:01:52.065Z,8.10
2023-04-16T12:04:27.301Z,9.00
2023-04-16T12:07:13.192Z,8.02
2023-04-16T12:09:43.266Z,7.93
2023-04-16T12:12:46.002Z,8.13
2023-04-16T12:15:13.024Z,8.68
2023-04-16T12:17:39.907Z,8.82
2023-04-16T12:20:13.094Z,9.73
2023-04-16T12:22:47.943Z,9.48
2023-04-16T12:25:16.969Z,8.20
2023-04-16T12:27:47.768Z,8.55
2023-04-16T12:30:17.097Z,9.13
2023-04-16T12:32:46.731Z,10.15
2023-04-16T12:35:28.881Z,9.65
2023-04-16T12:37:55.902Z,9.88
2023-04-16T12:40:22.663Z,9.95
2023-04-16T12:42:49.453Z,9.65
2023-04-16T12:45:16.496Z,9.80
2023-04-16T12:47:49.218Z,10.48
2023-04-16T12:50:16.323Z,8.85
2023-04-16T12:52:43.302Z,9.55
2023-04-16T12:55:12.887Z,10.38
2023-04-16T12:57:39.982Z,10.27
2023-04-16T13:00:10.930Z,10.45
2023-04-16T13:02:38.063Z,10.38
2023-04-16T13:05:05.600Z,9.80
2023-04-16T13:07:33.993Z,9.98
2023-04-16T13:10:01.133Z,11.18
2023-04-16T13:12:28.463Z,11.38
2023-04-16T13:14:58.414Z,10.55
2023-04-16T13:17:25.437Z,10.85
2023-04-16T13:19:52.367Z,12.77
2023-04-16T13:22:19.266Z,12.60
2023-04-16T13:24:46.415Z,12.13
2023-04-16T13:27:13.425Z,13.23
2023-04-16T13:29:40.325Z,14.57
2023-04-16T13:32:07.146Z,12.85
2023-04-16T13:34:33.983Z,13.57
2023-04-16T13:37:00.868Z,14.00
2023-04-16T13:39:27.755Z,13.40
2023-04-16T13:41:54.529Z,13.43
2023-04-16T13:44:21.555Z,14.63
2023-04-16T13:46:48.531Z,14.60
2023-04-16T13:49:15.547Z,13.05
2023-04-16T13:51:46.099Z,13.23
2023-04-16T13:54:13.565Z,13.20
2023-04-16T13:56:41.378Z,12.95
2023-04-16T13:59:08.654Z,13.15
2023-04-16T14:01:36.361Z,14.65
2023-04-16T14:04:06.828Z,13.48
2023-04-16T14:06:34.902Z,13.25
2023-04-16T14:09:02.106Z,11.65
2023-04-16T14:11:28.988Z,11.80
2023-04-16T14:13:56.159Z,11.30
2023-04-16T14:16:23.542Z,11.52
2023-04-16T14:18:51.856Z,12.70
2023-04-16T14:21:19.153Z,14.73
2023-04-16T14:23:46.118Z,11.82
2023-04-16T14:26:13.282Z,11.70
2023-04-16T14:28:41.234Z,11.40
2023-04-16T14:31:08.118Z,12.27
2023-04-16T14:33:35.270Z,11.93
2023-04-16T14:36:03.985Z,11.63
2023-04-16T14:38:34.030Z,11.02
2023-04-16T14:41:06.692Z,11.57
2023-04-16T14:43:33.623Z,11.85
2023-04-16T14:46:00.556Z,9.55
2023-04-16T14:48:27.539Z,11.38
2023-04-16T14:50:54.380Z,12.68
2023-04-16T14:53:23.078Z,11.55
2023-04-16T14:55:49.973Z,12.63
2023-04-16T14:58:18.227Z,11.05
2023-04-16T15:00:45.171Z,10.45
2023-04-16T15:03:12.174Z,11.73
2023-04-16T15:05:39.108Z,11.38
2023-04-16T15:08:06.167Z,11.00
2023-04-16T15:10:33.293Z,11.55
2023-04-16T15:13:00.256Z,11.45
2023-04-16T15:15:27.119Z,11.57
2023-04-16T15:17:54.094Z,11.20
2023-04-16T15:20:21.070Z,11.70
2023-04-16T15:22:47.999Z,12.65
2023-04-16T15:25:15.064Z,55.40
2023-04-16T15:27:41.960Z,12.95
2023-04-16T15:30:09.346Z,10.75
2023-04-16T15:32:36.411Z,11.13
2023-04-16T15:35:05.009Z,10.77
2023-04-16T15:37:32.190Z,11.38
2023-04-16T15:39:59.078Z,11.25
2023-04-16T15:42:26.304Z,10.77
2023-04-16T15:44:53.124Z,11.75
2023-04-16T15:47:20.102Z,13.02
2023-04-16T15:49:46.973Z,11.82
2023-04-16T15:52:14.205Z,11.52
2023-04-16T15:54:41.224Z,10.95
2023-04-16T15:57:09.135Z,11.55
2023-04-16T15:59:36.103Z,11.13
2023-04-16T16:02:03.132Z,13.77
2023-04-16T16:04:30.488Z,12.30
2023-04-16T16:06:57.627Z,11.90
2023-04-16T16:09:28.040Z,11.98
2023-04-16T16:11:56.974Z,11.88
2023-04-16T16:14:23.831Z,12.77
2023-04-16T16:16:50.817Z,12.55
2023-04-16T16:19:17.771Z,14.25
2023-04-16T16:21:47.813Z,13.95
2023-04-16T16:24:15.644Z,12.55
2023-04-16T16:26:42.613Z,14.18
2023-04-16T16:29:12.907Z,12.30
2023-04-16T16:31:39.861Z,14.68
2023-04-16T16:34:06.810Z,15.75
2023-04-16T16:36:36.827Z,16.25
2023-04-16T16:39:04.338Z,13.68
2023-04-16T16:41:31.348Z,13.55
2023-04-16T16:43:59.032Z,14.23
2023-04-16T16:46:25.906Z,13.82
2023-04-16T16:48:52.800Z,13.77
2023-04-16T16:51:19.680Z,14.23
2023-04-16T16:56:30.747Z,15.35
2023-04-16T16:58:57.538Z,14.43
2023-04-16T17:01:27.390Z,14.02
2023-04-16T17:06:27.205Z,15.07
2023-04-16T17:14:41.954Z,14.70
2023-04-16T17:17:11.150Z,16.05
2023-04-16T17:19:46.221Z,14.38
2023-04-16T17:22:14.730Z,15.77
2023-04-16T17:24:43.427Z,13.80
2023-04-16T17:27:11.176Z,13.95
2023-04-16T17:29:43.064Z,15.93
2023-04-16T17:34:45.519Z,13.60
2023-04-16T17:37:13.327Z,14.20
2023-04-16T17:39:40.144Z,14.82
2023-04-16T17:42:06.929Z,15.45
2023-04-16T17:50:00.007Z,13.73
2023-04-16T17:52:27.321Z,15.02
2023-04-16T17:55:00.271Z,14.20
2023-04-16T17:57:30.782Z,14.48
2023-04-16T17:59:57.662Z,15.48
2023-04-16T18:02:24.614Z,13.68
2023-04-16T18:04:51.619Z,15.07
2023-04-16T18:07:19.365Z,14.05
2023-04-16T18:09:46.156Z,15.20
2023-04-16T18:12:13.015Z,14.88
2023-04-16T18:14:40.703Z,16.40
2023-04-16T18:17:07.579Z,15.65
2023-04-16T18:19:35.716Z,14.98
2023-04-16T18:22:03.044Z,16.00
2023-04-16T18:30:00.624Z,17.00
2023-04-16T18:32:30.860Z,16.48
2023-04-16T18:37:46.239Z,17.27
2023-04-16T18:40:13.329Z,16.98
2023-04-16T18:42:40.413Z,18.05
2023-04-16T18:45:12.341Z,18.20
2023-04-16T18:50:15.486Z,19.33
2023-04-16T18:52:43.438Z,18.90
2023-04-16T18:57:48.497Z,18.05
2023-04-16T19:00:15.584Z,19.50
2023-04-16T19:02:42.698Z,20.42
2023-04-16T19:05:10.791Z,22.40
2023-04-16T19:07:37.883Z,22.75
2023-04-16T19:10:07.428Z,21.73
2023-04-16T19:12:41.717Z,34.05
2023-04-16T19:15:09.233Z,26.10
2023-04-16T19:17:37.601Z,24.20
2023-04-16T19:20:09.485Z,22.13
2023-04-16T19:22:39.550Z,24.50
2023-04-16T19:25:07.482Z,22.90
2023-04-16T19:27:38.850Z,23.08
2023-04-16T19:30:06.724Z,22.67
2023-04-16T19:32:33.829Z,24.95
2023-04-16T19:35:00.792Z,22.40
2023-04-16T19:37:27.869Z,21.15
2023-04-16T19:39:55.008Z,21.38
2023-04-16T19:42:24.272Z,20.60
2023-04-16T19:44:56.856Z,18.98
2023-04-16T19:47:24.116Z,20.73
2023-04-16T19:49:51.073Z,21.05
2023-04-16T19:52:17.807Z,20.70
2023-04-16T19:54:44.786Z,20.45
2023-04-16T19:57:11.750Z,20.40
2023-04-16T19:59:38.641Z,20.13
2023-04-16T20:02:05.563Z,20.80
2023-04-16T20:04:35.952Z,20.48
2023-04-16T20:07:02.852Z,22.23
2023-04-16T20:09:29.770Z,21.63
2023-04-16T20:11:58.111Z,21.02
2023-04-16T20:14:25.005Z,22.48
2023-04-16T20:16:52.329Z,22.70
2023-04-16T20:19:19.595Z,23.85
2023-04-16T20:21:48.033Z,23.70
2023-04-16T20:24:15.575Z,22.35
2023-04-16T20:26:42.423Z,22.35
2023-04-16T20:29:10.370Z,23.83
2023-04-16T20:31:37.489Z,23.20
2023-04-16T20:34:04.298Z,24.08
2023-04-16T20:36:31.875Z,23.98
2023-04-16T20:38:59.665Z,26.90
2023-04-16T20:41:27.442Z,25.02
2023-04-16T20:43:54.275Z,25.70
2023-04-16T20:46:30.220Z,26.17
2023-04-16T20:48:57.135Z,24.98
2023-04-16T20:51:23.939Z,26.27
2023-04-16T20:53:52.190Z,26.33
2023-04-16T20:56:19.556Z,26.52
2023-04-16T20:58:46.582Z,25.40
2023-04-16T21:01:13.487Z,26.90
2023-04-16T21:03:40.777Z,26.27
2023-04-16T21:06:07.927Z,24.95
2023-04-16T21:08:35.003Z,25.67
2023-04-16T21:11:01.883Z,25.75
2023-04-16T21:13:28.767Z,25.45
2023-04-16T21:15:55.579Z,25.52
2023-04-16T21:18:22.390Z,25.60
2023-04-16T21:20:49.254Z,24.85
2023-04-16T21:23:16.430Z,24.45
2023-04-16T21:25:43.362Z,25.88
2023-04-16T21:28:10.492Z,26.25
2023-04-16T21:30:37.308Z,26.60
2023-04-16T21:33:04.304Z,25.45
2023-04-16T21:35:33.395Z,26.00
2023-04-16T21:38:00.326Z,26.65
2023-04-16T21:43:08.541Z,25.92
2023-04-16T21:45:35.456Z,25.55
2023-04-16T21:48:02.326Z,26.05
2023-04-16T21:50:29.197Z,27.02
2023-04-16T21:52:56.108Z,27.33
2023-04-16T21:55:23.229Z,25.30
2023-04-16T21:57:50.352Z,27.15
2023-04-16T22:00:18.473Z,27.58
2023-04-16T22:02:45.408Z,26.13
2023-04-16T22:05:12.528Z,27.17
2023-04-16T22:07:39.320Z,26.88
2023-04-16T22:10:08.704Z,25.90
2023-04-16T22:12:39.932Z,27.58
2023-04-16T22:15:08.233Z,25.73
2023-04-16T22:17:35.346Z,27.35
2023-04-16T22:20:06.865Z,25.15
2023-04-16T22:25:00.739Z,27.65
2023-04-16T22:27:27.728Z,27.65
2023-04-16T22:29:54.525Z,28.58
2023-04-16T22:32:21.441Z,29.92
2023-04-16T22:34:48.331Z,27.40
2023-04-16T22:37:15.612Z,28.35
2023-04-16T22:39:42.417Z,28.50
2023-04-16T22:42:09.458Z,28.80
2023-04-16T22:44:39.553Z,27.33
2023-04-16T22:47:06.327Z,28.17
2023-04-16T22:49:33.346Z,28.80
2023-04-16T22:52:03.118Z,29.83
2023-04-16T22:54:33.058Z,31.27
2023-04-16T22:56:59.791Z,30.58
2023-04-16T22:59:26.531Z,30.05
2023-04-16T23:01:53.478Z,30.85
2023-04-16T23:04:20.410Z,28.83
2023-04-16T23:06:47.315Z,29.73
2023-04-16T23:09:14.490Z,28.95
2023-04-16T23:11:41.582Z,30.23
2023-04-16T23:14:08.449Z,29.38
2023-04-16T23:16:38.442Z,29.25
2023-04-16T23:19:14.579Z,26.70
2023-04-16T23:21:42.004Z,28.80
2023-04-16T23:24:09.100Z,27.52
2023-04-16T23:26:38.565Z,29.73
2023-04-16T23:29:05.408Z,27.45
2023-04-16T23:31:32.376Z,28.23
2023-04-16T23:33:59.184Z,29.95
2023-04-16T23:36:26.993Z,30.98
2023-04-16T23:38:53.948Z,30.60
2023-04-16T23:41:23.303Z,31.48
2023-04-16T23:43:50.145Z,32.22
2023-04-16T23:46:17.098Z,32.65
2023-04-16T23:48:43.993Z,29.98
2023-04-16T23:51:11.021Z,29.55
2023-04-16T23:53:38.122Z,29.58
2023-04-16T23:56:05.741Z,28.80
2023-04-16T23:58:32.577Z,29.30
